createdAt,value
2023-04-10T00:02:55.347Z,8.85
2023-04-10T00:07:58.347Z,8.93
2023-04-10T00:13:03.615Z,10.38
2023-04-10T00:18:06.628Z,11.29
2023-04-10T00:23:09.861Z,10.91
2023-04-10T00:28:12.826Z,8.78
2023-04-10T00:33:16.044Z,8.36
2023-04-10T00:38:19.048Z,10.06
2023-04-10T00:43:22.363Z,11.12
2023-04-10T00:48:26.361Z,10.82
2023-04-10T00:53:30.043Z,8.74
2023-04-10T00:58:33.018Z,8.75
2023-04-10T01:03:37.349Z,10.29
2023-04-10T01:09:06.406Z,10.34
2023-04-10T01:14:09.274Z,8.22
2023-04-10T01:19:12.285Z,7.34
2023-04-10T01:24:24.989Z,8.92
2023-04-10T01:29:31.060Z,10.33
2023-04-10T01:34:45.151Z,11.11
2023-04-10T01:39:54.584Z,10.66
2023-04-10T01:44:58.769Z,8.59
2023-04-10T01:50:03.707Z,9.26
2023-04-10T01:55:08.839Z,10.79
2023-04-10T02:00:12.962Z,10.69
2023-04-10T02:05:16.988Z,8.52
2023-04-10T02:10:31.655Z,8.61
2023-04-10T02:15:36.630Z,10.43
2023-04-10T02:20:39.671Z,11.16
2023-04-10T02:25:42.581Z,9.37
2023-04-10T02:30:45.778Z,8.48
2023-04-10T02:35:48.819Z,10.09
2023-04-10T02:40:51.788Z,11.19
2023-04-10T02:45:55.110Z,10.94
2023-04-10T02:50:58.722Z,8.97
2023-04-10T02:56:02.638Z,8.64
2023-04-10T03:01:09.345Z,10.53
2023-04-10T03:06:12.462Z,10.77
2023-04-10T03:11:15.563Z,8.69
2023-04-10T03:16:19.076Z,8.31
2023-04-10T03:21:22.297Z,10.13
2023-04-10T03:26:25.608Z,11.09
2023-04-10T03:31:29.752Z,9.39
2023-04-10T03:36:32.748Z,8.41
2023-04-10T03:41:35.649Z,9.97
2023-04-10T03:46:38.632Z,10.79
2023-04-10T03:51:41.564Z,9.69
2023-04-10T03:56:44.463Z,8.23
2023-04-10T04:01:47.438Z,9.52
2023-04-10T04:06:50.474Z,10.59
2023-04-10T04:11:53.381Z,9.94
2023-04-10T04:16:56.346Z,9.25
2023-04-10T04:22:00.596Z,11.45
2023-04-10T04:27:03.833Z,12.16
2023-04-10T04:32:06.766Z,10.97
2023-04-10T04:37:09.761Z,10.87
2023-04-10T04:42:12.955Z,12.10
2023-04-10T04:47:15.860Z,14.01
2023-04-10T04:52:18.764Z,13.71
2023-04-10T04:57:21.877Z,13.87
2023-04-10T05:02:25.088Z,14.19
2023-04-10T05:07:28.088Z,14.53
2023-04-10T05:12:31.402Z,15.11
2023-04-10T05:17:34.480Z,15.64
2023-04-10T05:22:37.515Z,15.98
2023-04-10T05:27:40.527Z,16.40
2023-04-10T05:32:43.498Z,16.68
2023-04-10T05:37:46.437Z,17.16
2023-04-10T05:42:49.344Z,17.76
2023-04-10T05:47:52.367Z,18.24
2023-04-10T05:52:55.439Z,18.84
2023-04-10T05:57:58.469Z,19.59
2023-04-10T06:03:01.837Z,20.09
2023-04-10T06:08:05.194Z,20.37
2023-04-10T06:13:10.577Z,20.74
2023-04-10T06:18:14.171Z,21.08
2023-04-10T06:23:17.286Z,21.19
2023-04-10T06:28:20.409Z,21.14
2023-04-10T06:33:26.164Z,21.37
2023-04-10T06:38:29.753Z,21.95
2023-04-10T06:43:36.953Z,22.42
2023-04-10T06:48:39.922Z,23.04
2023-04-10T06:53:43.017Z,23.50
2023-04-10T06:58:46.121Z,23.93
2023-04-10T07:03:49.082Z,24.20
2023-04-10T07:08:52.304Z,24.34
2023-04-10T07:13:58.683Z,24.57
2023-04-10T07:19:01.744Z,24.93
2023-04-10T07:24:04.758Z,25.15
2023-04-10T07:29:08.044Z,25.52
2023-04-10T07:34:12.114Z,26.09
2023-04-10T07:39:15.093Z,26.39
2023-04-10T07:44:18.772Z,26.56
2023-04-10T07:49:21.919Z,26.80
2023-04-10T07:54:24.938Z,27.06
2023-04-10T07:59:29.055Z,27.23
2023-04-10T08:04:32.425Z,27.26
2023-04-10T08:09:35.995Z,27.27
2023-04-10T08:14:38.991Z,27.36
2023-04-10T08:19:43.378Z,27.22
2023-04-10T08:24:46.545Z,27.17
2023-04-10T08:29:52.153Z,27.36
2023-04-10T08:34:56.690Z,27.35
2023-04-10T08:40:04.706Z,26.61
2023-04-10T08:45:11.453Z,24.70
2023-04-10T08:50:18.066Z,22.02
2023-04-10T08:55:21.989Z,19.89
2023-04-10T09:00:26.081Z,18.72
2023-04-10T09:05:30.372Z,18.00
2023-04-10T09:10:33.362Z,17.19
2023-04-10T09:15:55.690Z,16.64
2023-04-10T09:21:07.303Z,16.38
2023-04-10T09:26:23.088Z,16.27
2023-04-10T09:31:29.790Z,16.13
2023-04-10T09:36:32.960Z,15.95
2023-04-10T09:41:48.026Z,15.85
2023-04-10T09:46:51.589Z,15.96
2023-04-10T09:51:54.653Z,16.03
2023-04-10T09:56:58.658Z,15.99
2023-04-10T10:02:02.737Z,15.85
2023-04-10T10:07:06.447Z,15.99
2023-04-10T10:12:11.878Z,16.25
2023-04-10T10:17:18.641Z,16.20
2023-04-10T10:22:25.918Z,16.17
2023-04-10T10:27:35.190Z,16.39
2023-04-10T10:32:38.406Z,16.49
2023-04-10T10:37:42.925Z,16.39
2023-04-10T10:43:01.932Z,16.42
2023-04-10T10:48:05.050Z,16.56
2023-04-10T10:53:08.144Z,16.85
2023-04-10T10:58:11.760Z,17.09
2023-04-10T11:03:14.811Z,17.19
2023-04-10T11:08:18.639Z,17.28
2023-04-10T11:13:21.990Z,17.28
2023-04-10T11:18:51.156Z,17.28
2023-04-10T11:23:59.572Z,17.35
2023-04-10T11:29:03.467Z,17.41
2023-04-10T11:34:15.896Z,17.43
2023-04-10T11:39:20.545Z,17.60
2023-04-10T11:44:39.727Z,17.71
2023-04-10T11:49:42.936Z,17.71
2023-04-10T11:54:49.523Z,17.99
2023-04-10T11:59:52.631Z,18.19
2023-04-10T12:04:59.568Z,18.02
2023-04-10T12:10:02.665Z,17.71
2023-04-10T12:15:29.141Z,17.71
2023-04-10T12:20:32.306Z,17.63
2023-04-10T12:25:35.725Z,17.39
2023-04-10T12:30:45.999Z,17.16
2023-04-10T12:35:48.937Z,17.10
2023-04-10T12:40:59.376Z,17.25
2023-04-10T12:46:03.558Z,17.28
2023-04-10T12:51:07.252Z,17.57
2023-04-10T12:56:10.253Z,18.01
2023-04-10T13:01:14.953Z,18.27
2023-04-10T13:06:18.323Z,18.40
2023-04-10T13:11:22.857Z,18.78
2023-04-10T13:16:26.113Z,19.18
2023-04-10T13:21:29.792Z,19.36
2023-04-10T13:26:32.798Z,19.45
2023-04-10T13:31:35.956Z,19.48
2023-04-10T13:36:39.285Z,19.48
2023-04-10T13:41:42.326Z,19.32
2023-04-10T13:46:45.455Z,19.32
2023-04-10T13:51:48.583Z,19.43
2023-04-10T13:56:51.663Z,19.36
2023-04-10T14:01:54.663Z,19.15
2023-04-10T14:07:00.641Z,19.09
2023-04-10T14:12:03.854Z,18.95
2023-04-10T14:17:06.961Z,18.79
2023-04-10T14:22:09.867Z,18.57
2023-04-10T14:27:13.604Z,18.55
2023-04-10T14:32:16.726Z,18.57
2023-04-10T14:37:19.804Z,18.56
2023-04-10T14:42:23.908Z,18.45
2023-04-10T14:47:27.084Z,18.34
2023-04-10T14:52:30.254Z,18.28
2023-04-10T14:57:33.160Z,18.21
2023-04-10T15:02:36.274Z,18.15
2023-04-10T15:07:39.589Z,18.01
2023-04-10T15:12:43.012Z,17.94
2023-04-10T15:17:46.176Z,17.83
2023-04-10T15:22:49.112Z,17.85
2023-04-10T15:27:52.023Z,17.85
2023-04-10T15:32:55.049Z,17.77
2023-04-10T15:37:58.240Z,17.69
2023-04-10T15:43:01.244Z,17.75
2023-04-10T15:48:05.230Z,17.75
2023-04-10T15:53:08.275Z,17.63
2023-04-10T15:58:11.390Z,17.54
2023-04-10T16:03:14.674Z,17.52
2023-04-10T16:08:18.016Z,17.51
2023-04-10T16:13:21.134Z,17.42
2023-04-10T16:18:24.349Z,17.27
2023-04-10T16:23:27.342Z,17.12
2023-04-10T16:28:30.252Z,16.97
2023-04-10T16:33:33.352Z,16.79
2023-04-10T16:38:36.459Z,16.60
2023-04-10T16:43:39.671Z,16.41
2023-04-10T16:48:42.576Z,16.17
2023-04-10T16:53:45.582Z,15.90
2023-04-10T16:58:48.740Z,15.61
2023-04-10T17:03:52.060Z,15.35
2023-04-10T17:08:55.351Z,15.08
2023-04-10T17:13:58.549Z,14.83
2023-04-10T17:19:01.755Z,14.60
2023-04-10T17:24:04.871Z,14.37
2023-04-10T17:29:07.978Z,14.14
2023-04-10T17:34:11.086Z,13.90
2023-04-10T17:39:14.077Z,13.64
2023-04-10T17:44:17.062Z,13.42
2023-04-10T17:49:21.919Z,13.23
2023-04-10T17:54:25.261Z,13.10
2023-04-10T17:59:31.219Z,13.00
2023-04-10T18:04:34.543Z,12.91
2023-04-10T18:09:37.989Z,12.84
2023-04-10T18:14:42.706Z,12.79
2023-04-10T18:19:45.910Z,12.74
2023-04-10T18:24:49.580Z,12.64
2023-04-10T18:29:57.642Z,12.55
2023-04-10T18:35:00.685Z,12.49
2023-04-10T18:40:15.512Z,12.43
2023-04-10T18:45:20.619Z,12.34
2023-04-10T18:50:23.622Z,12.22
2023-04-10T18:55:26.547Z,12.06
2023-04-10T19:00:29.632Z,11.88
2023-04-10T19:05:32.948Z,11.72
2023-04-10T19:10:37.719Z,11.56
2023-04-10T19:15:42.361Z,11.45
2023-04-10T19:20:48.844Z,11.38
2023-04-10T19:25:54.931Z,11.24
2023-04-10T19:30:58.354Z,11.85
2023-04-10T19:36:01.338Z,13.39
2023-04-10T19:41:13.629Z,12.36
2023-04-10T19:46:18.184Z,11.69
2023-04-10T19:51:21.629Z,11.28
2023-04-10T19:56:25.458Z,10.94
2023-04-10T20:01:28.590Z,11.60
2023-04-10T20:06:32.109Z,14.06
2023-04-10T20:11:35.169Z,13.20
2023-04-10T20:16:39.256Z,11.94
2023-04-10T20:21:42.322Z,11.20
2023-04-10T20:26:45.895Z,10.68
2023-04-10T20:31:49.044Z,11.19
2023-04-10T20:36:52.049Z,13.56
2023-04-10T20:41:55.050Z,14.02
2023-04-10T20:46:57.962Z,12.20
2023-04-10T20:52:01.059Z,11.02
2023-04-10T20:57:06.141Z,10.21
2023-04-10T21:02:09.223Z,10.02
2023-04-10T21:07:12.345Z,12.07
2023-04-10T21:12:15.342Z,13.64
2023-04-10T21:17:19.458Z,12.67
2023-04-10T21:22:22.691Z,11.00
2023-04-10T21:27:25.692Z,10.02
2023-04-10T21:32:30.040Z,9.29
2023-04-10T21:37:33.041Z,10.26
2023-04-10T21:42:39.584Z,12.34
2023-04-10T21:47:42.561Z,13.39
2023-04-10T21:52:45.754Z,13.21
2023-04-10T21:57:48.753Z,11.26
2023-04-10T22:02:52.023Z,10.90
2023-04-10T22:07:55.487Z,12.72
2023-04-10T22:12:58.584Z,12.78
2023-04-10T22:18:01.587Z,10.82
2023-04-10T22:23:05.119Z,10.46
2023-04-10T22:28:08.118Z,12.21
2023-04-10T22:33:12.158Z,13.17
2023-04-10T22:38:15.635Z,12.07
2023-04-10T22:43:18.581Z,10.50
2023-04-10T22:48:21.662Z,11.74
2023-04-10T22:53:24.791Z,12.69
2023-04-10T22:58:27.897Z,12.34
2023-04-10T23:03:30.909Z,10.86
2023-04-10T23:08:33.952Z,12.11
2023-04-10T23:13:36.814Z,12.73
2023-04-10T23:18:39.721Z,12.94
2023-04-10T23:23:42.834Z,11.23
2023-04-10T23:28:45.741Z,10.54
2023-04-10T23:33:48.861Z,11.71
2023-04-10T23:38:52.067Z,12.44
2023-04-10T23:43:55.168Z,12.26
2023-04-10T23:48:58.285Z,10.57
2023-04-10T23:54:01.280Z,11.43
2023-04-10T23:59:04.499Z,12.03
